Time;durP1;ratioP1;P1;durP2;ratioP2;P2;SDS_P1;SDS_P2;PMS_P1;PMS_P2;Temp;Humidity;BMP_temperature;BMP_pressure;BME280_temperature;BME280_humidity;BME280_pressure;Samples;Min_cycle;Max_cycle;Signal;HPM_P1;HPM_P2
2022/10/14 18:50:25;;;;;;;;;4.50;4.25;;;;;15.87;100.00;100637.38;5091992;27;49577;-77
2022/10/14 18:52:50;;;;;;;;;3.00;3.00;;;;;16.64;100.00;100713.00;5087551;27;49715;-74
2022/10/14 18:55:16;;;;;;;;;2.50;1.50;;;;;16.38;100.00;100649.53;5087707;27;49812;-73
2022/10/14 18:57:41;;;;;;;;;4.75;3.00;;;;;16.72;100.00;100700.66;5087236;27;49848;-72
2022/10/14 19:00:08;;;;;;;;;3.00;1.00;;;;;16.97;100.00;100732.31;5087869;27;49718;-71
2022/10/14 19:02:33;;;;;;;;;2.00;2.00;;;;;16.69;100.00;100681.19;5099821;27;49534;-72
2022/10/14 19:04:59;;;;;;;;;2.00;2.00;;;;;17.06;100.00;100733.13;5093074;27;49679;-74
2022/10/14 19:07:25;;;;;;;;;1.75;1.75;;;;;17.18;100.00;100740.16;5083843;27;50706;-73
2022/10/14 19:09:51;;;;;;;;;1.75;1.75;;;;;17.13;100.00;100715.41;5104826;27;49418;-72
2022/10/14 19:15:00;;;;;;;;;1.75;1.75;;;;;17.21;100.00;100733.94;5102591;27;49492;-75
2022/10/14 19:17:25;;;;;;;;;2.00;2.00;;;;;16.10;100.00;100518.13;5093168;27;55756;-76
2022/10/14 19:19:50;;;;;;;;;2.50;2.50;;;;;16.37;100.00;100568.28;5090518;27;49769;-77
2022/10/14 19:22:15;;;;;;;;;6.50;4.00;;;;;16.28;100.00;100544.50;5091307;27;49751;-77
2022/10/14 19:24:41;;;;;;;;;3.25;3.25;;;;;17.56;100.00;100757.53;5086244;27;49822;-74
2022/10/14 19:27:06;;;;;;;;;4.00;2.25;;;;;17.56;100.00;100758.41;5086214;27;58236;-74
2022/10/14 19:29:31;;;;;;;;;3.25;2.75;;;;;17.61;100.00;100753.97;5086735;27;49892;-75
2022/10/14 19:31:57;;;;;;;;;4.00;4.00;;;;;17.21;100.00;100697.69;5086411;27;49809;-74
2022/10/14 19:34:23;;;;;;;;;5.00;5.00;;;;;16.13;100.00;100518.13;5085377;27;49950;-75
2022/10/14 19:36:48;;;;;;;;;3.00;3.00;;;;;17.49;100.00;100719.56;5086286;27;50761;-75
2022/10/14 19:39:15;;;;;;;;;3.25;3.25;;;;;17.36;100.00;100704.63;5085145;27;49680;-75
2022/10/14 19:41:46;;;;;;;;;5.00;5.00;;;;;17.49;100.00;100745.25;5087037;27;50196;-74
2022/10/14 19:44:12;;;;;;;;;3.50;3.50;;;;;17.43;100.00;100747.03;5086825;27;50049;-74
2022/10/14 19:46:39;;;;;;;;;3.25;2.25;;;;;17.30;100.00;100742.72;5086233;27;51036;-73
2022/10/14 19:49:05;;;;;;;;;2.50;2.50;;;;;17.32;98.14;100750.66;5086371;27;49549;-73
2022/10/14 19:51:32;;;;;;;;;4.75;2.75;;;;;17.19;97.77;100735.72;5086327;27;49785;-72
2022/10/14 19:53:58;;;;;;;;;2.25;2.25;;;;;16.60;97.02;100635.31;5086682;27;50305;-72
2022/10/14 19:56:24;;;;;;;;;2.00;2.00;;;;;17.26;96.64;100756.00;5086063;27;49933;-74
2022/10/14 19:58:54;;;;;;;;;2.75;2.75;;;;;17.16;96.05;100766.66;5086451;27;50070;-73
2022/10/14 20:01:24;;;;;;;;;1.00;1.00;;;;;17.08;96.44;100763.19;5074842;27;49812;-74
2022/10/14 20:03:51;;;;;;;;;2.00;2.00;;;;;16.64;96.05;100710.38;5072914;28;49901;-72
2022/10/14 20:06:16;;;;;;;;;3.75;3.75;;;;;16.33;96.37;100669.88;5072543;28;50823;-72
2022/10/14 20:08:44;;;;;;;;;2.50;2.50;;;;;16.62;96.15;100740.41;5071016;28;49755;-72
2022/10/14 20:11:11;;;;;;;;;3.00;3.00;;;;;17.05;96.62;100804.75;5072706;27;49803;-72
2022/10/14 20:13:36;;;;;;;;;3.00;3.00;;;;;17.05;96.83;100821.53;5072699;28;49755;-73
2022/10/14 20:16:03;;;;;;;;;3.75;3.75;;;;;17.04;96.58;100810.94;5071966;28;50514;-73
2022/10/14 20:18:29;;;;;;;;;3.00;2.50;;;;;16.45;96.33;100719.28;5072564;28;49834;-72
2022/10/14 20:20:55;;;;;;;;;2.00;2.00;;;;;17.00;95.39;100809.22;5072680;27;49798;-72
2022/10/14 20:23:22;;;;;;;;;3.00;3.00;;;;;17.02;95.87;100807.44;5072781;28;49795;-73
2022/10/14 20:25:47;;;;;;;;;3.00;3.00;;;;;17.00;95.55;100806.56;5072038;28;49716;-72
2022/10/14 20:28:14;;;;;;;;;3.00;3.00;;;;;16.81;95.38;100780.13;5072020;28;49984;-72
2022/10/14 20:30:41;;;;;;;;;3.75;3.75;;;;;16.83;94.99;100796.03;5072030;28;49856;-72
2022/10/14 20:33:08;;;;;;;;;3.50;3.50;;;;;16.67;95.05;100770.41;5071804;28;49855;-72
2022/10/14 20:35:34;;;;;;;;;3.00;3.00;;;;;16.86;94.75;100799.53;5070097;28;50046;-73
2022/10/14 20:37:59;;;;;;;;;3.50;3.50;;;;;16.98;94.48;100822.44;5070547;28;49959;-73
2022/10/14 20:40:25;;;;;;;;;3.25;3.25;;;;;16.99;94.27;100818.06;5070856;27;50093;-72
2022/10/14 20:42:51;;;;;;;;;4.25;4.25;;;;;15.76;94.04;100605.66;5079372;27;49796;-73
2022/10/14 20:45:16;;;;;;;;;4.00;4.00;;;;;16.92;94.20;100800.41;5080955;27;50618;-73
2022/10/14 20:47:42;;;;;;;;;4.75;4.50;;;;;17.06;93.87;100841.00;5071611;27;49863;-72
2022/10/14 20:50:10;;;;;;;;;5.00;5.00;;;;;17.04;93.70;100848.09;5079138;27;50046;-77
2022/10/14 20:52:36;;;;;;;;;3.25;3.00;;;;;16.99;92.82;100837.50;5066093;28;50023;-77
2022/10/14 20:55:01;;;;;;;;;4.00;3.75;;;;;16.61;93.08;100774.00;5072232;28;49865;-76
2022/10/14 20:57:27;;;;;;;;;4.00;3.00;;;;;16.85;92.14;100832.25;5072198;28;49936;-77
2022/10/14 20:59:53;;;;;;;;;3.25;3.00;;;;;16.94;91.84;100852.53;5073316;27;49947;-76
2022/10/14 21:02:20;;;;;;;;;3.00;3.00;;;;;16.79;91.13;100839.31;5072002;27;49884;-78
